sensor_id;sensor_type;location;lat;lon;timestamp;temperature;humidity
20856;DHT22;63058;49.424;8.420;2023-04-23T00:00:35;16.60;90.70
20856;DHT22;63058;49.424;8.420;2023-04-23T00:03:05;16.50;90.90
20856;DHT22;63058;49.424;8.420;2023-04-23T00:05:35;16.40;91.00
20856;DHT22;63058;49.424;8.420;2023-04-23T00:08:05;16.40;91.40
20856;DHT22;63058;49.424;8.420;2023-04-23T00:10:31;16.40;91.20
20856;DHT22;63058;49.424;8.420;2023-04-23T00:12:57;16.40;91.20
20856;DHT22;63058;49.424;8.420;2023-04-23T00:15:23;16.40;91.40
20856;DHT22;63058;49.424;8.420;2023-04-23T00:17:48;16.40;91.40
20856;DHT22;63058;49.424;8.420;2023-04-23T00:20:15;16.40;91.50
20856;DHT22;63058;49.424;8.420;2023-04-23T00:22:41;16.30;91.50
20856;DHT22;63058;49.424;8.420;2023-04-23T00:25:08;16.30;91.60
20856;DHT22;63058;49.424;8.420;2023-04-23T00:27:34;16.30;91.70
20856;DHT22;63058;49.424;8.420;2023-04-23T00:30:00;16.20;91.80
20856;DHT22;63058;49.424;8.420;2023-04-23T00:32:25;16.20;91.90
20856;DHT22;63058;49.424;8.420;2023-04-23T00:34:51;16.20;92.00
20856;DHT22;63058;49.424;8.420;2023-04-23T00:37:17;16.20;92.10
20856;DHT22;63058;49.424;8.420;2023-04-23T00:39:43;16.20;92.20
20856;DHT22;63058;49.424;8.420;2023-04-23T00:42:09;16.20;92.30
20856;DHT22;63058;49.424;8.420;2023-04-23T00:44:40;16.20;92.40
20856;DHT22;63058;49.424;8.420;2023-04-23T00:47:09;16.30;92.50
20856;DHT22;63058;49.424;8.420;2023-04-23T00:49:35;16.30;92.50
20856;DHT22;63058;49.424;8.420;2023-04-23T00:52:02;16.30;92.60
20856;DHT22;63058;49.424;8.420;2023-04-23T00:54:28;16.30;92.60
20856;DHT22;63058;49.424;8.420;2023-04-23T00:56:57;16.40;92.70
20856;DHT22;63058;49.424;8.420;2023-04-23T00:59:27;16.40;92.70
20856;DHT22;63058;49.424;8.420;2023-04-23T01:01:54;16.50;92.80
20856;DHT22;63058;49.424;8.420;2023-04-23T01:04:21;16.50;92.70
20856;DHT22;63058;49.424;8.420;2023-04-23T01:06:48;16.50;92.80
20856;DHT22;63058;49.424;8.420;2023-04-23T01:09:14;16.60;92.80
20856;DHT22;63058;49.424;8.420;2023-04-23T01:11:42;16.60;92.80
20856;DHT22;63058;49.424;8.420;2023-04-23T01:14:09;16.60;92.80
20856;DHT22;63058;49.424;8.420;2023-04-23T01:16:36;16.60;92.90
20856;DHT22;63058;49.424;8.420;2023-04-23T01:19:04;16.60;92.90
20856;DHT22;63058;49.424;8.420;2023-04-23T01:21:31;16.60;92.90
20856;DHT22;63058;49.424;8.420;2023-04-23T01:23:58;16.60;92.90
20856;DHT22;63058;49.424;8.420;2023-04-23T01:26:24;16.60;92.90
20856;DHT22;63058;49.424;8.420;2023-04-23T01:28:50;16.60;92.90
20856;DHT22;63058;49.424;8.420;2023-04-23T01:31:17;16.60;92.90
20856;DHT22;63058;49.424;8.420;2023-04-23T01:33:43;16.60;92.90
20856;DHT22;63058;49.424;8.420;2023-04-23T01:36:09;16.60;92.90
20856;DHT22;63058;49.424;8.420;2023-04-23T01:38:35;16.60;93.00
20856;DHT22;63058;49.424;8.420;2023-04-23T01:41:02;16.60;92.90
20856;DHT22;63058;49.424;8.420;2023-04-23T01:43:28;16.60;92.90
20856;DHT22;63058;49.424;8.420;2023-04-23T01:45:54;16.60;92.90
20856;DHT22;63058;49.424;8.420;2023-04-23T01:48:20;16.60;92.90
20856;DHT22;63058;49.424;8.420;2023-04-23T01:50:46;16.60;93.00
20856;DHT22;63058;49.424;8.420;2023-04-23T01:53:12;16.50;93.10
20856;DHT22;63058;49.424;8.420;2023-04-23T01:55:39;16.50;93.10
20856;DHT22;63058;49.424;8.420;2023-04-23T01:58:05;16.60;93.20
20856;DHT22;63058;49.424;8.420;2023-04-23T02:00:30;16.50;93.30
20856;DHT22;63058;49.424;8.420;2023-04-23T02:02:56;16.50;93.30
20856;DHT22;63058;49.424;8.420;2023-04-23T02:05:23;16.50;93.70
20856;DHT22;63058;49.424;8.420;2023-04-23T02:07:51;16.40;93.40
20856;DHT22;63058;49.424;8.420;2023-04-23T02:10:17;16.40;93.40
20856;DHT22;63058;49.424;8.420;2023-04-23T02:12:46;16.40;93.50
20856;DHT22;63058;49.424;8.420;2023-04-23T02:15:13;16.40;93.50
20856;DHT22;63058;49.424;8.420;2023-04-23T02:17:39;16.30;93.60
20856;DHT22;63058;49.424;8.420;2023-04-23T02:20:06;16.50;93.70
20856;DHT22;63058;49.424;8.420;2023-04-23T02:22:34;16.30;93.60
20856;DHT22;63058;49.424;8.420;2023-04-23T02:25:01;16.30;93.70
20856;DHT22;63058;49.424;8.420;2023-04-23T02:27:27;16.20;93.70
20856;DHT22;63058;49.424;8.420;2023-04-23T02:29:52;16.30;93.80
20856;DHT22;63058;49.424;8.420;2023-04-23T02:32:18;16.20;93.80
20856;DHT22;63058;49.424;8.420;2023-04-23T02:34:44;16.10;93.80
20856;DHT22;63058;49.424;8.420;2023-04-23T02:37:10;16.10;93.90
20856;DHT22;63058;49.424;8.420;2023-04-23T02:39:36;16.00;94.00
20856;DHT22;63058;49.424;8.420;2023-04-23T02:42:05;16.00;94.00
20856;DHT22;63058;49.424;8.420;2023-04-23T02:44:30;16.00;94.10
20856;DHT22;63058;49.424;8.420;2023-04-23T02:46:56;16.00;94.20
20856;DHT22;63058;49.424;8.420;2023-04-23T02:49:21;15.90;94.20
20856;DHT22;63058;49.424;8.420;2023-04-23T02:51:47;16.00;94.30
20856;DHT22;63058;49.424;8.420;2023-04-23T02:54:13;15.90;94.30
20856;DHT22;63058;49.424;8.420;2023-04-23T02:56:39;15.90;94.40
20856;DHT22;63058;49.424;8.420;2023-04-23T02:59:05;15.80;94.40
20856;DHT22;63058;49.424;8.420;2023-04-23T03:01:31;15.80;94.50
20856;DHT22;63058;49.424;8.420;2023-04-23T03:03:57;15.80;94.50
20856;DHT22;63058;49.424;8.420;2023-04-23T03:06:23;15.80;94.50
20856;DHT22;63058;49.424;8.420;2023-04-23T03:08:49;15.70;94.60
20856;DHT22;63058;49.424;8.420;2023-04-23T03:11:14;15.70;94.70
20856;DHT22;63058;49.424;8.420;2023-04-23T03:13:40;15.70;94.70
20856;DHT22;63058;49.424;8.420;2023-04-23T03:16:06;15.70;94.70
20856;DHT22;63058;49.424;8.420;2023-04-23T03:18:32;15.60;94.70
20856;DHT22;63058;49.424;8.420;2023-04-23T03:20:57;15.70;94.80
20856;DHT22;63058;49.424;8.420;2023-04-23T03:23:24;15.60;94.80
20856;DHT22;63058;49.424;8.420;2023-04-23T03:25:49;15.60;94.80
20856;DHT22;63058;49.424;8.420;2023-04-23T03:28:15;15.50;94.80
20856;DHT22;63058;49.424;8.420;2023-04-23T03:30:41;15.50;94.80
20856;DHT22;63058;49.424;8.420;2023-04-23T03:33:07;15.50;94.80
20856;DHT22;63058;49.424;8.420;2023-04-23T03:35:32;15.50;94.80
20856;DHT22;63058;49.424;8.420;2023-04-23T03:37:58;15.50;94.80
20856;DHT22;63058;49.424;8.420;2023-04-23T03:40:23;15.40;94.80
20856;DHT22;63058;49.424;8.420;2023-04-23T03:42:49;15.40;94.80
20856;DHT22;63058;49.424;8.420;2023-04-23T03:45:15;15.30;95.20
20856;DHT22;63058;49.424;8.420;2023-04-23T03:47:43;15.30;94.90
20856;DHT22;63058;49.424;8.420;2023-04-23T03:50:10;15.30;95.00
20856;DHT22;63058;49.424;8.420;2023-04-23T03:52:37;15.30;95.10
20856;DHT22;63058;49.424;8.420;2023-04-23T03:55:03;15.30;95.20
20856;DHT22;63058;49.424;8.420;2023-04-23T03:57:29;15.30;95.20
20856;DHT22;63058;49.424;8.420;2023-04-23T03:59:54;15.30;95.20
20856;DHT22;63058;49.424;8.420;2023-04-23T04:02:20;15.40;95.20
20856;DHT22;63058;49.424;8.420;2023-04-23T04:04:46;15.30;95.20
20856;DHT22;63058;49.424;8.420;2023-04-23T04:07:14;15.30;95.20
20856;DHT22;63058;49.424;8.420;2023-04-23T04:09:39;15.30;95.20
20856;DHT22;63058;49.424;8.420;2023-04-23T04:12:05;15.20;95.10
20856;DHT22;63058;49.424;8.420;2023-04-23T04:14:31;15.20;95.20
20856;DHT22;63058;49.424;8.420;2023-04-23T04:16:57;15.20;95.20
20856;DHT22;63058;49.424;8.420;2023-04-23T04:19:23;15.10;95.20
20856;DHT22;63058;49.424;8.420;2023-04-23T04:21:49;15.10;95.30
20856;DHT22;63058;49.424;8.420;2023-04-23T04:24:17;15.10;95.30
20856;DHT22;63058;49.424;8.420;2023-04-23T04:26:45;15.10;95.40
20856;DHT22;63058;49.424;8.420;2023-04-23T04:29:11;15.10;95.40
20856;DHT22;63058;49.424;8.420;2023-04-23T04:31:37;15.10;95.50
20856;DHT22;63058;49.424;8.420;2023-04-23T04:34:03;15.20;95.50
20856;DHT22;63058;49.424;8.420;2023-04-23T04:36:29;15.10;95.60
20856;DHT22;63058;49.424;8.420;2023-04-23T04:38:55;15.10;95.70
20856;DHT22;63058;49.424;8.420;2023-04-23T04:41:25;15.10;95.70
20856;DHT22;63058;49.424;8.420;2023-04-23T04:43:52;15.10;95.70
20856;DHT22;63058;49.424;8.420;2023-04-23T04:46:19;15.00;95.80
20856;DHT22;63058;49.424;8.420;2023-04-23T04:48:48;15.10;95.80
20856;DHT22;63058;49.424;8.420;2023-04-23T04:51:14;15.00;95.90
20856;DHT22;63058;49.424;8.420;2023-04-23T04:53:40;15.00;95.90
20856;DHT22;63058;49.424;8.420;2023-04-23T04:56:06;15.10;96.00
20856;DHT22;63058;49.424;8.420;2023-04-23T04:58:31;15.00;96.00
20856;DHT22;63058;49.424;8.420;2023-04-23T05:00:58;15.10;96.10
20856;DHT22;63058;49.424;8.420;2023-04-23T05:03:24;15.10;96.20
20856;DHT22;63058;49.424;8.420;2023-04-23T05:05:51;15.00;96.20
20856;DHT22;63058;49.424;8.420;2023-04-23T05:08:17;15.10;96.20
20856;DHT22;63058;49.424;8.420;2023-04-23T05:10:43;15.10;96.30
20856;DHT22;63058;49.424;8.420;2023-04-23T05:13:09;15.00;96.30
20856;DHT22;63058;49.424;8.420;2023-04-23T05:15:35;15.10;96.40
20856;DHT22;63058;49.424;8.420;2023-04-23T05:18:04;15.10;96.50
20856;DHT22;63058;49.424;8.420;2023-04-23T05:20:30;15.10;96.50
20856;DHT22;63058;49.424;8.420;2023-04-23T05:22:56;15.20;97.00
20856;DHT22;63058;49.424;8.420;2023-04-23T05:25:24;15.20;96.70
20856;DHT22;63058;49.424;8.420;2023-04-23T05:27:49;15.30;96.70
20856;DHT22;63058;49.424;8.420;2023-04-23T05:30:15;15.30;96.70
20856;DHT22;63058;49.424;8.420;2023-04-23T05:32:41;15.40;96.70
20856;DHT22;63058;49.424;8.420;2023-04-23T05:35:07;15.50;96.80
20856;DHT22;63058;49.424;8.420;2023-04-23T05:37:33;15.50;96.80
20856;DHT22;63058;49.424;8.420;2023-04-23T05:39:59;15.60;96.90
20856;DHT22;63058;49.424;8.420;2023-04-23T05:42:25;15.60;96.90
20856;DHT22;63058;49.424;8.420;2023-04-23T05:44:50;15.70;96.80
20856;DHT22;63058;49.424;8.420;2023-04-23T05:47:16;15.70;96.70
20856;DHT22;63058;49.424;8.420;2023-04-23T05:49:42;15.80;96.70
20856;DHT22;63058;49.424;8.420;2023-04-23T05:52:07;15.90;96.70
20856;DHT22;63058;49.424;8.420;2023-04-23T05:54:33;15.90;96.60
20856;DHT22;63058;49.424;8.420;2023-04-23T05:56:58;15.90;96.40
20856;DHT22;63058;49.424;8.420;2023-04-23T05:59:24;16.10;96.30
20856;DHT22;63058;49.424;8.420;2023-04-23T06:01:50;16.00;96.10
20856;DHT22;63058;49.424;8.420;2023-04-23T06:04:16;16.00;95.90
20856;DHT22;63058;49.424;8.420;2023-04-23T06:06:44;16.00;95.80
20856;DHT22;63058;49.424;8.420;2023-04-23T06:09:10;15.90;95.60
20856;DHT22;63058;49.424;8.420;2023-04-23T06:11:35;16.00;95.60
20856;DHT22;63058;49.424;8.420;2023-04-23T06:14:02;15.90;95.60
20856;DHT22;63058;49.424;8.420;2023-04-23T06:16:27;16.00;95.60
20856;DHT22;63058;49.424;8.420;2023-04-23T06:18:53;15.90;95.50
20856;DHT22;63058;49.424;8.420;2023-04-23T06:21:24;15.80;95.50
20856;DHT22;63058;49.424;8.420;2023-04-23T06:23:49;15.80;95.70
20856;DHT22;63058;49.424;8.420;2023-04-23T06:26:15;15.80;95.80
20856;DHT22;63058;49.424;8.420;2023-04-23T06:28:42;15.80;96.00
20856;DHT22;63058;49.424;8.420;2023-04-23T06:31:08;15.80;96.10
20856;DHT22;63058;49.424;8.420;2023-04-23T06:33:34;15.90;96.20
20856;DHT22;63058;49.424;8.420;2023-04-23T06:36:04;15.90;96.20
20856;DHT22;63058;49.424;8.420;2023-04-23T06:38:30;15.90;96.20
20856;DHT22;63058;49.424;8.420;2023-04-23T06:40:56;16.10;96.20
20856;DHT22;63058;49.424;8.420;2023-04-23T06:43:22;16.00;96.20
20856;DHT22;63058;49.424;8.420;2023-04-23T06:45:47;16.10;96.30
20856;DHT22;63058;49.424;8.420;2023-04-23T06:48:13;16.10;96.30
20856;DHT22;63058;49.424;8.420;2023-04-23T06:50:40;16.10;96.30
20856;DHT22;63058;49.424;8.420;2023-04-23T06:53:06;16.10;96.40
20856;DHT22;63058;49.424;8.420;2023-04-23T06:55:31;16.20;96.40
20856;DHT22;63058;49.424;8.420;2023-04-23T06:57:57;16.30;96.60
20856;DHT22;63058;49.424;8.420;2023-04-23T07:00:23;16.30;96.90
20856;DHT22;63058;49.424;8.420;2023-04-23T07:02:49;16.50;97.10
20856;DHT22;63058;49.424;8.420;2023-04-23T07:05:15;16.60;97.20
20856;DHT22;63058;49.424;8.420;2023-04-23T07:07:41;16.70;97.40
20856;DHT22;63058;49.424;8.420;2023-04-23T07:10:08;16.90;97.60
20856;DHT22;63058;49.424;8.420;2023-04-23T07:12:35;17.00;97.60
20856;DHT22;63058;49.424;8.420;2023-04-23T07:15:01;17.20;97.50
20856;DHT22;63058;49.424;8.420;2023-04-23T07:17:26;17.30;97.50
20856;DHT22;63058;49.424;8.420;2023-04-23T07:19:52;17.40;97.50
20856;DHT22;63058;49.424;8.420;2023-04-23T07:22:17;17.60;97.50
20856;DHT22;63058;49.424;8.420;2023-04-23T07:24:43;17.70;97.30
20856;DHT22;63058;49.424;8.420;2023-04-23T07:27:09;17.80;97.10
20856;DHT22;63058;49.424;8.420;2023-04-23T07:29:34;17.80;97.00
20856;DHT22;63058;49.424;8.420;2023-04-23T07:32:00;18.00;96.90
20856;DHT22;63058;49.424;8.420;2023-04-23T07:34:25;18.00;96.80
20856;DHT22;63058;49.424;8.420;2023-04-23T07:36:51;18.10;96.90
20856;DHT22;63058;49.424;8.420;2023-04-23T07:39:17;18.20;96.80
20856;DHT22;63058;49.424;8.420;2023-04-23T07:41:42;18.20;96.40
20856;DHT22;63058;49.424;8.420;2023-04-23T07:44:08;18.30;96.20
20856;DHT22;63058;49.424;8.420;2023-04-23T07:46:34;18.30;95.60
20856;DHT22;63058;49.424;8.420;2023-04-23T07:48:59;18.30;95.10
20856;DHT22;63058;49.424;8.420;2023-04-23T07:51:25;18.20;95.20
20856;DHT22;63058;49.424;8.420;2023-04-23T07:53:54;18.20;95.30
20856;DHT22;63058;49.424;8.420;2023-04-23T07:56:21;18.20;95.10
20856;DHT22;63058;49.424;8.420;2023-04-23T07:58:48;18.10;95.30
20856;DHT22;63058;49.424;8.420;2023-04-23T08:01:14;18.20;95.60
20856;DHT22;63058;49.424;8.420;2023-04-23T08:03:40;18.20;95.50
20856;DHT22;63058;49.424;8.420;2023-04-23T08:06:06;18.20;95.50
20856;DHT22;63058;49.424;8.420;2023-04-23T08:08:31;18.20;95.20
20856;DHT22;63058;49.424;8.420;2023-04-23T08:10:57;18.30;95.20
20856;DHT22;63058;49.424;8.420;2023-04-23T08:13:23;18.30;95.30
20856;DHT22;63058;49.424;8.420;2023-04-23T08:15:49;18.40;95.20
20856;DHT22;63058;49.424;8.420;2023-04-23T08:18:16;18.50;95.00
20856;DHT22;63058;49.424;8.420;2023-04-23T08:20:42;18.50;95.10
20856;DHT22;63058;49.424;8.420;2023-04-23T08:23:08;18.60;95.00
20856;DHT22;63058;49.424;8.420;2023-04-23T08:25:33;18.60;94.70
20856;DHT22;63058;49.424;8.420;2023-04-23T08:27:59;18.70;94.50
20856;DHT22;63058;49.424;8.420;2023-04-23T08:30:25;18.70;94.40
20856;DHT22;63058;49.424;8.420;2023-04-23T08:32:53;18.80;94.70
20856;DHT22;63058;49.424;8.420;2023-04-23T08:35:19;18.90;94.80
20856;DHT22;63058;49.424;8.420;2023-04-23T08:37:45;19.00;95.10
20856;DHT22;63058;49.424;8.420;2023-04-23T08:43:12;19.20;95.20
20856;DHT22;63058;49.424;8.420;2023-04-23T08:46:12;19.30;94.30
20856;DHT22;63058;49.424;8.420;2023-04-23T08:49:09;19.60;94.50
20856;DHT22;63058;49.424;8.420;2023-04-23T08:52:05;19.70;94.60
20856;DHT22;63058;49.424;8.420;2023-04-23T08:54:45;19.80;93.60
20856;DHT22;63058;49.424;8.420;2023-04-23T08:57:21;20.00;94.00
20856;DHT22;63058;49.424;8.420;2023-04-23T08:59:52;20.10;93.70
20856;DHT22;63058;49.424;8.420;2023-04-23T09:02:46;20.20;93.80
20856;DHT22;63058;49.424;8.420;2023-04-23T09:05:22;20.30;93.50
20856;DHT22;63058;49.424;8.420;2023-04-23T09:08:01;20.40;93.50
20856;DHT22;63058;49.424;8.420;2023-04-23T09:13:39;20.50;92.50
20856;DHT22;63058;49.424;8.420;2023-04-23T09:16:07;20.60;92.00
20856;DHT22;63058;49.424;8.420;2023-04-23T09:18:39;20.70;93.40
20856;DHT22;63058;49.424;8.420;2023-04-23T09:21:08;20.80;92.80
20856;DHT22;63058;49.424;8.420;2023-04-23T09:23:37;20.90;93.20
20856;DHT22;63058;49.424;8.420;2023-04-23T09:26:34;21.00;92.60
20856;DHT22;63058;49.424;8.420;2023-04-23T09:39:21;21.60;92.10
20856;DHT22;63058;49.424;8.420;2023-04-23T09:45:30;21.80;92.00
20856;DHT22;63058;49.424;8.420;2023-04-23T09:48:00;21.90;91.80
20856;DHT22;63058;49.424;8.420;2023-04-23T09:50:48;22.00;92.10
20856;DHT22;63058;49.424;8.420;2023-04-23T09:53:48;22.00;90.70
20856;DHT22;63058;49.424;8.420;2023-04-23T09:56:27;22.00;90.50
20856;DHT22;63058;49.424;8.420;2023-04-23T09:59:00;22.10;90.80
20856;DHT22;63058;49.424;8.420;2023-04-23T10:01:31;22.10;90.70
20856;DHT22;63058;49.424;8.420;2023-04-23T10:07:19;22.10;90.80
20856;DHT22;63058;49.424;8.420;2023-04-23T10:09:53;22.20;90.20
20856;DHT22;63058;49.424;8.420;2023-04-23T10:12:39;22.30;91.90
20856;DHT22;63058;49.424;8.420;2023-04-23T10:15:40;22.40;91.10
20856;DHT22;63058;49.424;8.420;2023-04-23T10:19:08;22.50;90.60
20856;DHT22;63058;49.424;8.420;2023-04-23T10:21:45;22.90;90.90
20856;DHT22;63058;49.424;8.420;2023-04-23T10:30:59;23.10;90.00
20856;DHT22;63058;49.424;8.420;2023-04-23T10:33:53;23.30;90.50
20856;DHT22;63058;49.424;8.420;2023-04-23T10:36:32;23.30;89.50
20856;DHT22;63058;49.424;8.420;2023-04-23T10:39:20;23.40;89.60
20856;DHT22;63058;49.424;8.420;2023-04-23T10:52:46;23.60;86.60
20856;DHT22;63058;49.424;8.420;2023-04-23T11:33:38;24.70;85.50
20856;DHT22;63058;49.424;8.420;2023-04-23T11:50:48;26.30;84.10
20856;DHT22;63058;49.424;8.420;2023-04-23T12:00:38;26.50;80.80
20856;DHT22;63058;49.424;8.420;2023-04-23T12:03:38;26.40;79.60
20856;DHT22;63058;49.424;8.420;2023-04-23T12:06:32;26.60;78.90
20856;DHT22;63058;49.424;8.420;2023-04-23T12:09:23;26.60;80.70
20856;DHT22;63058;49.424;8.420;2023-04-23T13:04:19;28.90;70.00
20856;DHT22;63058;49.424;8.420;2023-04-23T13:06:52;28.80;69.40
20856;DHT22;63058;49.424;8.420;2023-04-23T13:09:46;28.90;69.90
20856;DHT22;63058;49.424;8.420;2023-04-23T13:18:59;29.20;71.20
20856;DHT22;63058;49.424;8.420;2023-04-23T13:21:25;29.70;77.30
20856;DHT22;63058;49.424;8.420;2023-04-23T13:23:50;30.30;75.80
20856;DHT22;63058;49.424;8.420;2023-04-23T13:26:16;30.80;72.50
20856;DHT22;63058;49.424;8.420;2023-04-23T13:28:42;31.00;70.20
20856;DHT22;63058;49.424;8.420;2023-04-23T13:31:08;31.00;68.00
20856;DHT22;63058;49.424;8.420;2023-04-23T13:33:36;30.90;65.90
20856;DHT22;63058;49.424;8.420;2023-04-23T13:36:02;30.60;62.90
20856;DHT22;63058;49.424;8.420;2023-04-23T13:38:29;30.40;63.00
20856;DHT22;63058;49.424;8.420;2023-04-23T13:40:54;30.00;63.30
20856;DHT22;63058;49.424;8.420;2023-04-23T13:43:20;29.70;63.80
20856;DHT22;63058;49.424;8.420;2023-04-23T13:45:46;29.40;62.80
20856;DHT22;63058;49.424;8.420;2023-04-23T13:48:13;29.20;63.70
20856;DHT22;63058;49.424;8.420;2023-04-23T13:50:39;29.00;63.90
20856;DHT22;63058;49.424;8.420;2023-04-23T13:53:05;28.90;65.60
20856;DHT22;63058;49.424;8.420;2023-04-23T13:55:31;28.90;64.70
20856;DHT22;63058;49.424;8.420;2023-04-23T13:57:56;28.90;65.40
20856;DHT22;63058;49.424;8.420;2023-04-23T14:00:25;28.90;65.70
20856;DHT22;63058;49.424;8.420;2023-04-23T14:02:51;29.00;64.50
20856;DHT22;63058;49.424;8.420;2023-04-23T14:05:17;29.00;63.80
20856;DHT22;63058;49.424;8.420;2023-04-23T14:07:42;29.00;64.60
20856;DHT22;63058;49.424;8.420;2023-04-23T14:10:08;29.00;64.90
20856;DHT22;63058;49.424;8.420;2023-04-23T14:12:33;29.00;65.60
20856;DHT22;63058;49.424;8.420;2023-04-23T14:14:59;29.10;65.40
20856;DHT22;63058;49.424;8.420;2023-04-23T14:17:25;29.20;64.50
20856;DHT22;63058;49.424;8.420;2023-04-23T14:19:50;29.10;62.40
20856;DHT22;63058;49.424;8.420;2023-04-23T14:22:16;29.00;62.40
20856;DHT22;63058;49.424;8.420;2023-04-23T14:24:49;28.80;61.10
20856;DHT22;63058;49.424;8.420;2023-04-23T14:27:15;28.60;59.60
20856;DHT22;63058;49.424;8.420;2023-04-23T14:29:46;28.40;60.10
20856;DHT22;63058;49.424;8.420;2023-04-23T14:32:15;28.10;60.40
20856;DHT22;63058;49.424;8.420;2023-04-23T14:34:40;27.90;60.50
20856;DHT22;63058;49.424;8.420;2023-04-23T14:37:06;27.70;59.90
20856;DHT22;63058;49.424;8.420;2023-04-23T14:39:33;27.50;60.80
20856;DHT22;63058;49.424;8.420;2023-04-23T14:41:58;27.30;60.30
20856;DHT22;63058;49.424;8.420;2023-04-23T14:44:25;27.10;60.20
20856;DHT22;63058;49.424;8.420;2023-04-23T14:46:54;26.90;60.60
20856;DHT22;63058;49.424;8.420;2023-04-23T14:49:20;26.60;59.40
20856;DHT22;63058;49.424;8.420;2023-04-23T14:51:51;26.40;60.40
20856;DHT22;63058;49.424;8.420;2023-04-23T14:54:22;26.20;59.90
20856;DHT22;63058;49.424;8.420;2023-04-23T14:56:50;26.00;61.40
20856;DHT22;63058;49.424;8.420;2023-04-23T14:59:15;25.80;61.60
20856;DHT22;63058;49.424;8.420;2023-04-23T15:01:42;25.70;62.00
20856;DHT22;63058;49.424;8.420;2023-04-23T15:04:09;25.50;61.90
20856;DHT22;63058;49.424;8.420;2023-04-23T15:06:35;25.40;60.40
20856;DHT22;63058;49.424;8.420;2023-04-23T15:09:01;25.20;60.90
20856;DHT22;63058;49.424;8.420;2023-04-23T15:11:27;25.10;61.50
20856;DHT22;63058;49.424;8.420;2023-04-23T15:14:17;24.90;62.00
20856;DHT22;63058;49.424;8.420;2023-04-23T15:16:42;24.80;62.40
20856;DHT22;63058;49.424;8.420;2023-04-23T15:19:08;24.70;63.00
20856;DHT22;63058;49.424;8.420;2023-04-23T15:21:37;24.70;63.60
20856;DHT22;63058;49.424;8.420;2023-04-23T15:24:03;24.70;64.90
20856;DHT22;63058;49.424;8.420;2023-04-23T15:26:29;24.80;65.80
20856;DHT22;63058;49.424;8.420;2023-04-23T15:28:56;24.90;66.10
20856;DHT22;63058;49.424;8.420;2023-04-23T15:31:22;25.00;65.70
20856;DHT22;63058;49.424;8.420;2023-04-23T15:33:48;25.10;65.00
20856;DHT22;63058;49.424;8.420;2023-04-23T15:36:13;25.00;63.80
20856;DHT22;63058;49.424;8.420;2023-04-23T15:38:39;25.00;63.80
20856;DHT22;63058;49.424;8.420;2023-04-23T15:41:05;24.90;63.90
20856;DHT22;63058;49.424;8.420;2023-04-23T15:43:30;24.80;62.60
20856;DHT22;63058;49.424;8.420;2023-04-23T15:45:56;24.70;62.90
20856;DHT22;63058;49.424;8.420;2023-04-23T15:48:24;24.50;63.10
20856;DHT22;63058;49.424;8.420;2023-04-23T15:50:52;24.40;62.20
20856;DHT22;63058;49.424;8.420;2023-04-23T15:53:17;24.20;61.90
20856;DHT22;63058;49.424;8.420;2023-04-23T15:55:49;24.00;61.90
20856;DHT22;63058;49.424;8.420;2023-04-23T15:58:16;23.70;60.30
20856;DHT22;63058;49.424;8.420;2023-04-23T16:00:42;23.50;61.40
20856;DHT22;63058;49.424;8.420;2023-04-23T16:03:08;23.20;61.50
20856;DHT22;63058;49.424;8.420;2023-04-23T16:05:34;22.80;61.70
20856;DHT22;63058;49.424;8.420;2023-04-23T16:08:02;22.30;62.40
20856;DHT22;63058;49.424;8.420;2023-04-23T16:10:28;21.70;63.60
20856;DHT22;63058;49.424;8.420;2023-04-23T16:12:56;21.00;65.20
20856;DHT22;63058;49.424;8.420;2023-04-23T16:15:23;20.30;67.60
20856;DHT22;63058;49.424;8.420;2023-04-23T16:17:49;19.70;69.50
20856;DHT22;63058;49.424;8.420;2023-04-23T16:20:17;19.20;71.80
20856;DHT22;63058;49.424;8.420;2023-04-23T16:22:42;18.70;73.60
20856;DHT22;63058;49.424;8.420;2023-04-23T16:25:08;18.40;75.70
20856;DHT22;63058;49.424;8.420;2023-04-23T16:27:34;18.10;77.50
20856;DHT22;63058;49.424;8.420;2023-04-23T16:29:59;18.00;79.10
20856;DHT22;63058;49.424;8.420;2023-04-23T16:32:25;17.90;80.90
20856;DHT22;63058;49.424;8.420;2023-04-23T16:34:51;17.90;81.90
20856;DHT22;63058;49.424;8.420;2023-04-23T16:37:16;17.90;82.80
20856;DHT22;63058;49.424;8.420;2023-04-23T16:39:42;18.00;84.00
20856;DHT22;63058;49.424;8.420;2023-04-23T16:42:08;18.00;84.20
20856;DHT22;63058;49.424;8.420;2023-04-23T16:44:34;18.00;84.40
20856;DHT22;63058;49.424;8.420;2023-04-23T16:46:59;18.10;84.70
20856;DHT22;63058;49.424;8.420;2023-04-23T16:49:25;18.20;84.90
20856;DHT22;63058;49.424;8.420;2023-04-23T16:51:50;18.10;85.50
20856;DHT22;63058;49.424;8.420;2023-04-23T16:54:16;18.20;85.50
20856;DHT22;63058;49.424;8.420;2023-04-23T16:56:42;18.20;85.40
20856;DHT22;63058;49.424;8.420;2023-04-23T16:59:10;18.30;86.00
20856;DHT22;63058;49.424;8.420;2023-04-23T17:01:35;18.20;86.10
20856;DHT22;63058;49.424;8.420;2023-04-23T17:04:01;18.30;86.60
20856;DHT22;63058;49.424;8.420;2023-04-23T17:06:31;18.30;86.90
20856;DHT22;63058;49.424;8.420;2023-04-23T17:09:00;18.30;87.00
20856;DHT22;63058;49.424;8.420;2023-04-23T17:11:27;18.30;87.10
20856;DHT22;63058;49.424;8.420;2023-04-23T17:13:54;18.30;87.60
20856;DHT22;63058;49.424;8.420;2023-04-23T17:16:20;18.30;87.70
20856;DHT22;63058;49.424;8.420;2023-04-23T17:18:46;18.40;87.70
20856;DHT22;63058;49.424;8.420;2023-04-23T17:21:12;18.40;88.30
20856;DHT22;63058;49.424;8.420;2023-04-23T17:23:37;18.40;88.60
20856;DHT22;63058;49.424;8.420;2023-04-23T17:26:03;18.40;88.50
20856;DHT22;63058;49.424;8.420;2023-04-23T17:28:29;18.40;88.90
20856;DHT22;63058;49.424;8.420;2023-04-23T17:30:54;18.50;89.40
20856;DHT22;63058;49.424;8.420;2023-04-23T17:33:21;18.50;89.80
20856;DHT22;63058;49.424;8.420;2023-04-23T17:35:51;18.60;90.00
20856;DHT22;63058;49.424;8.420;2023-04-23T17:38:20;18.70;89.80
20856;DHT22;63058;49.424;8.420;2023-04-23T17:40:53;18.80;89.80
20856;DHT22;63058;49.424;8.420;2023-04-23T17:43:19;18.80;89.50
20856;DHT22;63058;49.424;8.420;2023-04-23T17:45:46;18.80;89.50
20856;DHT22;63058;49.424;8.420;2023-04-23T17:48:13;18.80;89.60
20856;DHT22;63058;49.424;8.420;2023-04-23T17:50:39;18.90;89.50
20856;DHT22;63058;49.424;8.420;2023-04-23T17:53:05;18.80;89.30
20856;DHT22;63058;49.424;8.420;2023-04-23T17:55:31;18.80;89.20
20856;DHT22;63058;49.424;8.420;2023-04-23T17:57:58;18.70;89.10
20856;DHT22;63058;49.424;8.420;2023-04-23T18:00:25;18.70;89.20
20856;DHT22;63058;49.424;8.420;2023-04-23T18:02:53;18.60;89.30
20856;DHT22;63058;49.424;8.420;2023-04-23T18:05:18;18.50;89.60
20856;DHT22;63058;49.424;8.420;2023-04-23T18:07:44;18.50;89.80
20856;DHT22;63058;49.424;8.420;2023-04-23T18:10:10;18.50;90.00
20856;DHT22;63058;49.424;8.420;2023-04-23T18:12:36;18.40;90.00
20856;DHT22;63058;49.424;8.420;2023-04-23T18:15:03;18.40;90.00